Time;durP1;ratioP1;P1;durP2;ratioP2;P2;SDS_P1;SDS_P2;PMS_P1;PMS_P2;Temp;Humidity;BMP_temperature;BMP_pressure;BME280_temperature;BME280_humidity;BME280_pressure;Samples;Min_cycle;Max_cycle;Signal;HPM_P1;HPM_P2
2023/05/11 00:01:51;;;;;;;0.50;0.50;;;;;10.40;95778.00;;;;5014144;28;20201;-55
2023/05/11 00:04:18;;;;;;;0.50;0.50;;;;;10.40;95777.00;;;;5014157;28;20260;-55
2023/05/11 00:06:45;;;;;;;0.50;0.50;;;;;10.40;95770.00;;;;5014152;28;20210;-55
2023/05/11 00:09:13;;;;;;;0.50;0.50;;;;;10.50;95775.00;;;;5013882;28;20197;-54
2023/05/11 00:11:40;;;;;;;0.60;0.60;;;;;10.50;95774.00;;;;5013838;28;20201;-54
2023/05/11 00:14:08;;;;;;;0.50;0.50;;;;;10.50;95779.00;;;;5012769;28;20240;-54
2023/05/11 00:16:36;;;;;;;0.60;0.60;;;;;10.60;95772.00;;;;5013801;28;20209;-54
2023/05/11 00:19:04;;;;;;;0.73;0.73;;;;;10.60;95774.00;;;;5013670;28;20194;-57
2023/05/11 00:21:32;;;;;;;0.57;0.57;;;;;10.60;95774.00;;;;5013921;28;20656;-54
2023/05/11 00:23:59;;;;;;;0.50;0.50;;;;;10.60;95777.00;;;;5013481;28;20305;-54
2023/05/11 00:26:27;;;;;;;0.60;0.60;;;;;10.60;95773.00;;;;5013511;28;20213;-54
2023/05/11 00:28:54;;;;;;;0.67;0.67;;;;;10.60;95773.00;;;;5014124;28;20652;-54
2023/05/11 00:31:22;;;;;;;0.60;0.60;;;;;10.50;95773.00;;;;5014010;28;20197;-54
2023/05/11 00:33:53;;;;;;;0.60;0.60;;;;;10.60;95765.00;;;;5013409;28;20276;-55
2023/05/11 00:36:20;;;;;;;0.60;0.60;;;;;10.60;95769.00;;;;5013438;28;20667;-54
2023/05/11 00:38:48;;;;;;;0.60;0.60;;;;;10.60;95768.00;;;;5014016;28;20557;-54
2023/05/11 00:41:16;;;;;;;0.50;0.50;;;;;10.50;95759.00;;;;5013416;28;20668;-54
2023/05/11 00:43:43;;;;;;;0.73;0.73;;;;;10.50;95757.00;;;;5013826;28;20558;-54
2023/05/11 00:46:11;;;;;;;0.70;0.70;;;;;10.40;95765.00;;;;5013537;28;20217;-54
2023/05/11 00:48:38;;;;;;;0.60;0.60;;;;;10.30;95761.00;;;;5013973;28;20201;-54
2023/05/11 00:51:07;;;;;;;0.50;0.50;;;;;10.40;95757.00;;;;5013288;28;20189;-54
2023/05/11 00:53:35;;;;;;;1.50;0.90;;;;;10.30;95758.00;;;;5013720;28;20224;-54
2023/05/11 00:56:03;;;;;;;0.60;0.60;;;;;10.20;95761.00;;;;5013208;28;20251;-54
2023/05/11 00:58:32;;;;;;;0.50;0.50;;;;;10.30;95757.00;;;;5013742;28;20193;-54
2023/05/11 01:00:59;;;;;;;0.60;0.60;;;;;10.20;95758.00;;;;5013260;28;20289;-54
2023/05/11 01:03:27;;;;;;;0.60;0.60;;;;;10.20;95747.00;;;;5013146;28;20661;-55
2023/05/11 01:06:05;;;;;;;0.50;0.50;;;;;10.20;95750.00;;;;5013250;28;20643;-54
2023/05/11 01:08:40;;;;;;;0.60;0.60;;;;;10.20;95754.00;;;;5017519;28;20181;-54
2023/05/11 01:11:15;;;;;;;0.60;0.60;;;;;10.30;95745.00;;;;5017548;28;20188;-55
2023/05/11 01:13:48;;;;;;;0.57;0.57;;;;;10.30;95751.00;;;;5017342;28;20192;-56
2023/05/11 01:16:20;;;;;;;0.60;0.60;;;;;10.30;95753.00;;;;5017002;28;20216;-54
2023/05/11 01:18:52;;;;;;;0.50;0.50;;;;;10.20;95754.00;;;;5017609;28;20182;-54
2023/05/11 01:21:20;;;;;;;0.60;0.60;;;;;10.10;95750.00;;;;5016984;28;20233;-54
2023/05/11 01:24:23;;;;;;;0.50;0.50;;;;;10.10;95762.00;;;;5016988;28;20197;-55
2023/05/11 01:27:12;;;;;;;0.70;0.70;;;;;10.10;95751.00;;;;5016806;28;20232;-55
2023/05/11 01:29:54;;;;;;;0.60;0.60;;;;;10.20;95750.00;;;;5017916;28;20208;-54
2023/05/11 01:32:27;;;;;;;0.50;0.50;;;;;10.30;95750.00;;;;5017016;28;20182;-54
2023/05/11 01:35:02;;;;;;;0.40;0.40;;;;;10.40;95750.00;;;;5016869;28;20210;-55
2023/05/11 01:37:33;;;;;;;0.70;0.70;;;;;10.40;95747.00;;;;5016700;28;20181;-54
2023/05/11 01:40:04;;;;;;;0.50;0.50;;;;;10.40;95746.00;;;;5016976;28;20192;-54
2023/05/11 01:42:36;;;;;;;0.60;0.60;;;;;10.50;95749.00;;;;5016624;28;20185;-55
2023/05/11 01:45:06;;;;;;;0.50;0.50;;;;;10.50;95749.00;;;;5016521;28;20706;-54
2023/05/11 01:47:36;;;;;;;0.60;0.60;;;;;10.50;95744.00;;;;5016983;28;20194;-55
2023/05/11 01:50:06;;;;;;;0.60;0.60;;;;;10.50;95741.00;;;;5017442;28;20190;-54
2023/05/11 01:52:35;;;;;;;0.40;0.40;;;;;10.50;95752.00;;;;5016128;28;20235;-55
2023/05/11 01:55:05;;;;;;;0.50;0.50;;;;;10.50;95747.00;;;;5014746;28;20275;-54
2023/05/11 01:57:35;;;;;;;0.50;0.50;;;;;10.50;95754.00;;;;5036865;22;20227;-57
2023/05/11 02:00:03;;;;;;;0.60;0.60;;;;;10.50;95754.00;;;;5056382;28;20187;-57
2023/05/11 02:02:31;;;;;;;0.60;0.60;;;;;10.50;95751.00;;;;5055827;28;20192;-57
2023/05/11 02:05:01;;;;;;;0.60;0.60;;;;;10.40;95758.00;;;;5056276;28;20246;-56
2023/05/11 02:07:31;;;;;;;0.57;0.57;;;;;10.40;95754.00;;;;5056211;28;20223;-56
2023/05/11 02:10:00;;;;;;;0.60;0.60;;;;;10.40;95750.00;;;;5055680;28;20245;-56
2023/05/11 02:12:28;;;;;;;0.60;0.60;;;;;10.30;95755.00;;;;5055797;28;20188;-56
2023/05/11 02:14:57;;;;;;;0.60;0.60;;;;;10.30;95762.00;;;;5055837;28;20720;-57
2023/05/11 02:17:25;;;;;;;0.60;0.60;;;;;10.30;95753.00;;;;5055264;28;20219;-57
2023/05/11 02:19:53;;;;;;;0.60;0.60;;;;;10.10;95758.00;;;;5055755;28;20219;-57
2023/05/11 02:22:24;;;;;;;0.57;0.57;;;;;10.20;95769.00;;;;5055966;28;20238;-57
2023/05/11 02:24:52;;;;;;;0.73;0.73;;;;;10.20;95762.00;;;;5055906;28;20208;-57
2023/05/11 02:27:19;;;;;;;0.53;0.53;;;;;10.30;95758.00;;;;5055804;28;20761;-56
2023/05/11 02:29:47;;;;;;;0.80;0.80;;;;;10.20;95757.00;;;;5056076;28;20200;-57
2023/05/11 02:32:18;;;;;;;0.50;0.50;;;;;10.10;95761.00;;;;5055600;28;20605;-56
2023/05/11 02:34:50;;;;;;;0.70;0.70;;;;;10.10;95751.00;;;;5055560;28;20195;-56
2023/05/11 02:37:24;;;;;;;0.63;0.63;;;;;10.10;95758.00;;;;5055157;28;20187;-56
2023/05/11 02:39:59;;;;;;;0.80;0.80;;;;;10.10;95756.00;;;;5055723;28;20179;-56
2023/05/11 02:42:29;;;;;;;0.50;0.50;;;;;9.90;95758.00;;;;5055695;28;20603;-56
2023/05/11 02:45:02;;;;;;;0.43;0.43;;;;;10.00;95761.00;;;;5053791;28;20253;-57
2023/05/11 02:47:33;;;;;;;0.53;0.53;;;;;10.00;95751.00;;;;5055224;28;20252;-57
2023/05/11 02:50:04;;;;;;;0.60;0.60;;;;;10.10;95755.00;;;;5055266;28;20643;-57
2023/05/11 02:52:34;;;;;;;0.60;0.60;;;;;10.00;95751.00;;;;5055152;28;20184;-56
2023/05/11 02:55:03;;;;;;;0.60;0.60;;;;;10.10;95757.00;;;;5055226;28;20545;-56
2023/05/11 02:57:31;;;;;;;0.40;0.40;;;;;10.20;95764.00;;;;5055125;28;20220;-57
2023/05/11 02:59:59;;;;;;;0.50;0.50;;;;;10.20;95755.00;;;;5054795;28;20197;-57
2023/05/11 03:02:26;;;;;;;0.63;0.63;;;;;10.10;95754.00;;;;5055011;28;20199;-57
2023/05/11 03:04:54;;;;;;;0.60;0.60;;;;;10.10;95753.00;;;;5054983;28;20227;-56
2023/05/11 03:07:21;;;;;;;0.60;0.60;;;;;10.20;95747.00;;;;5054818;28;20216;-57
2023/05/11 03:09:50;;;;;;;0.60;0.60;;;;;10.20;95750.00;;;;5054791;28;20200;-57
2023/05/11 03:12:18;;;;;;;0.50;0.50;;;;;10.00;95740.00;;;;5054835;28;20736;-56
2023/05/11 03:14:46;;;;;;;0.50;0.50;;;;;10.00;95749.00;;;;5055066;28;20266;-56
2023/05/11 03:17:14;;;;;;;0.70;0.70;;;;;10.10;95738.00;;;;5054805;28;20191;-57
2023/05/11 03:19:43;;;;;;;0.50;0.50;;;;;10.10;95742.00;;;;5054646;28;20197;-57
2023/05/11 03:22:11;;;;;;;0.63;0.63;;;;;9.90;95747.00;;;;5054673;28;20200;-57
2023/05/11 03:24:39;;;;;;;0.60;0.60;;;;;10.00;95745.00;;;;5054823;28;20215;-57
2023/05/11 03:27:11;;;;;;;0.80;0.80;;;;;10.00;95750.00;;;;5054446;28;20540;-57
2023/05/11 03:29:42;;;;;;;0.50;0.50;;;;;10.00;95744.00;;;;5054030;28;20191;-57
2023/05/11 03:32:10;;;;;;;1.33;1.23;;;;;10.00;95734.00;;;;5054481;28;20227;-57
2023/05/11 03:34:37;;;;;;;0.50;0.50;;;;;10.00;95739.00;;;;5054097;28;20193;-58
2023/05/11 03:37:06;;;;;;;0.70;0.70;;;;;10.00;95733.00;;;;5054151;28;20529;-57
2023/05/11 03:39:36;;;;;;;0.50;0.50;;;;;10.00;95729.00;;;;5054003;28;20192;-58
2023/05/11 03:42:05;;;;;;;0.70;0.70;;;;;10.00;95739.00;;;;5054244;28;20192;-57
2023/05/11 03:44:35;;;;;;;0.60;0.60;;;;;10.00;95742.00;;;;5054426;28;20200;-57
2023/05/11 03:47:05;;;;;;;0.57;0.57;;;;;10.00;95737.00;;;;5054034;28;20193;-57
2023/05/11 03:49:33;;;;;;;0.60;0.60;;;;;9.90;95734.00;;;;5053875;28;20192;-57
2023/05/11 03:52:01;;;;;;;0.60;0.60;;;;;9.90;95736.00;;;;5053766;28;20238;-57
2023/05/11 03:54:28;;;;;;;0.50;0.50;;;;;9.90;95729.00;;;;5053706;28;20558;-57
2023/05/11 03:56:56;;;;;;;0.60;0.60;;;;;9.90;95742.00;;;;5053810;28;20196;-57
2023/05/11 03:59:23;;;;;;;0.57;0.57;;;;;9.90;95734.00;;;;5053820;28;20326;-57
2023/05/11 04:01:53;;;;;;;0.50;0.50;;;;;9.90;95731.00;;;;5052397;28;20200;-57
2023/05/11 04:04:21;;;;;;;0.90;0.90;;;;;9.90;95730.00;;;;5053839;28;20192;-57
2023/05/11 04:06:48;;;;;;;0.40;0.40;;;;;9.80;95729.00;;;;5053496;28;20219;-56
2023/05/11 04:09:15;;;;;;;0.60;0.60;;;;;9.90;95730.00;;;;5053667;28;20215;-57
2023/05/11 04:11:43;;;;;;;0.60;0.60;;;;;9.90;95724.00;;;;5053451;28;20199;-57
2023/05/11 04:14:10;;;;;;;0.60;0.60;;;;;9.90;95730.00;;;;5052080;28;20210;-57
2023/05/11 04:16:38;;;;;;;0.50;0.50;;;;;9.90;95728.00;;;;5053305;28;20192;-57
2023/05/11 04:19:06;;;;;;;0.53;0.53;;;;;9.90;95726.00;;;;5053203;28;20212;-57
2023/05/11 04:21:34;;;;;;;2.00;1.83;;;;;9.90;95730.00;;;;5053489;28;20552;-57
2023/05/11 04:24:02;;;;;;;0.90;0.90;;;;;10.00;95727.00;;;;5053376;28;20287;-57
2023/05/11 04:26:29;;;;;;;0.60;0.60;;;;;10.10;95725.00;;;;5053156;28;20219;-56
2023/05/11 04:28:57;;;;;;;0.50;0.50;;;;;10.20;95731.00;;;;5053113;28;20251;-57
2023/05/11 04:31:24;;;;;;;1.60;0.97;;;;;10.10;95725.00;;;;5053380;28;20196;-57
2023/05/11 04:33:51;;;;;;;0.53;0.53;;;;;10.10;95723.00;;;;5053106;28;20195;-57
2023/05/11 04:36:21;;;;;;;0.50;0.50;;;;;10.10;95730.00;;;;5053092;28;20196;-56
2023/05/11 04:38:48;;;;;;;0.53;0.53;;;;;10.00;95727.00;;;;5053503;28;20549;-57
2023/05/11 04:41:16;;;;;;;0.60;0.60;;;;;10.10;95732.00;;;;5053110;28;20282;-57
2023/05/11 04:43:43;;;;;;;0.67;0.67;;;;;10.10;95737.00;;;;5052986;28;20192;-57
2023/05/11 04:46:11;;;;;;;0.60;0.60;;;;;10.10;95731.00;;;;5051598;28;20705;-57
2023/05/11 04:48:38;;;;;;;0.50;0.50;;;;;10.10;95737.00;;;;5053152;28;20330;-57
2023/05/11 04:51:06;;;;;;;27.90;0.93;;;;;10.00;95743.00;;;;5052963;28;20253;-57
2023/05/11 04:53:35;;;;;;;0.77;0.77;;;;;10.10;95739.00;;;;5052975;28;20199;-57
2023/05/11 04:56:02;;;;;;;0.50;0.50;;;;;10.00;95739.00;;;;5053184;28;20192;-57
2023/05/11 04:58:29;;;;;;;0.80;0.80;;;;;10.00;95744.00;;;;5052894;28;20603;-57
2023/05/11 05:00:57;;;;;;;0.50;0.50;;;;;10.10;95741.00;;;;5053073;28;20246;-57
2023/05/11 05:03:24;;;;;;;0.80;0.80;;;;;10.20;95744.00;;;;5053394;28;20198;-57
2023/05/11 05:05:51;;;;;;;2.80;1.13;;;;;10.20;95735.00;;;;5052991;28;20617;-57
2023/05/11 05:08:20;;;;;;;0.70;0.70;;;;;10.30;95740.00;;;;5052702;28;20211;-57
2023/05/11 05:10:49;;;;;;;0.80;0.80;;;;;10.30;95744.00;;;;5053022;28;20588;-57
2023/05/11 05:13:16;;;;;;;0.50;0.50;;;;;10.30;95744.00;;;;5052717;28;20214;-58
2023/05/11 05:15:44;;;;;;;0.50;0.50;;;;;10.30;95740.00;;;;5052947;28;20567;-57
2023/05/11 05:18:11;;;;;;;0.50;0.50;;;;;10.30;95737.00;;;;5052597;28;20212;-56
2023/05/11 05:20:39;;;;;;;0.80;0.80;;;;;10.30;95741.00;;;;5053147;28;20254;-57
2023/05/11 05:23:06;;;;;;;0.60;0.60;;;;;10.40;95740.00;;;;5052678;28;20250;-58
2023/05/11 05:25:34;;;;;;;0.50;0.50;;;;;10.40;95739.00;;;;5052493;28;20743;-58
2023/05/11 05:28:03;;;;;;;0.60;0.60;;;;;10.50;95741.00;;;;5052847;28;20290;-58
2023/05/11 05:30:30;;;;;;;0.50;0.50;;;;;10.60;95742.00;;;;5052481;28;20192;-58
2023/05/11 05:32:57;;;;;;;0.87;0.87;;;;;10.60;95741.00;;;;5052528;28;20682;-58
2023/05/11 05:35:25;;;;;;;0.50;0.50;;;;;10.60;95748.00;;;;5052548;28;20606;-58
2023/05/11 05:37:52;;;;;;;0.60;0.60;;;;;10.60;95751.00;;;;5052570;28;20238;-55
2023/05/11 05:40:20;;;;;;;0.40;0.40;;;;;10.60;95744.00;;;;5052463;28;20679;-56
2023/05/11 05:42:47;;;;;;;0.73;0.73;;;;;10.60;95746.00;;;;5052304;28;20199;-56
2023/05/11 05:45:16;;;;;;;0.70;0.70;;;;;10.70;95751.00;;;;5052256;28;20189;-57
2023/05/11 05:47:43;;;;;;;0.47;0.47;;;;;10.80;95745.00;;;;5052584;28;20382;-57
2023/05/11 05:50:11;;;;;;;0.80;0.80;;;;;10.80;95750.00;;;;5052525;28;20196;-57
2023/05/11 05:52:38;;;;;;;0.50;0.50;;;;;10.90;95745.00;;;;5052857;28;20200;-56
2023/05/11 05:55:07;;;;;;;0.50;0.50;;;;;10.90;95745.00;;;;5056001;28;20257;-56
2023/05/11 05:57:34;;;;;;;0.50;0.50;;;;;10.90;95742.00;;;;5055875;28;20630;-56
2023/05/11 06:00:01;;;;;;;0.70;0.70;;;;;10.90;95746.00;;;;5054706;28;20219;-56
2023/05/11 06:02:30;;;;;;;1.13;1.13;;;;;10.80;95751.00;;;;5056162;28;20194;-57
2023/05/11 06:04:58;;;;;;;0.60;0.60;;;;;11.00;95752.00;;;;5052564;28;20279;-56
2023/05/11 06:07:25;;;;;;;1.63;1.53;;;;;10.90;95747.00;;;;5051795;28;20227;-55
2023/05/11 06:09:53;;;;;;;0.60;0.60;;;;;10.70;95747.00;;;;5054124;28;20207;-56
2023/05/11 06:12:20;;;;;;;0.50;0.50;;;;;10.90;95745.00;;;;5053376;28;21150;-56
2023/05/11 06:14:47;;;;;;;0.77;0.77;;;;;10.90;95749.00;;;;5054183;28;20557;-57
2023/05/11 06:17:15;;;;;;;0.70;0.70;;;;;11.00;95761.00;;;;5051629;28;20192;-57
2023/05/11 06:19:44;;;;;;;0.60;0.60;;;;;10.90;95741.00;;;;5053920;28;20701;-57
2023/05/11 06:22:11;;;;;;;0.53;0.53;;;;;10.90;95754.00;;;;5052915;28;20200;-58
2023/05/11 06:24:39;;;;;;;0.60;0.60;;;;;11.00;95751.00;;;;5053403;28;20204;-57
2023/05/11 06:27:06;;;;;;;0.60;0.60;;;;;11.00;95753.00;;;;5052147;28;20219;-57
2023/05/11 06:29:33;;;;;;;0.60;0.60;;;;;11.00;95755.00;;;;5053741;28;20196;-58
2023/05/11 06:32:01;;;;;;;0.67;0.67;;;;;11.00;95756.00;;;;5052081;28;20193;-57
2023/05/11 06:34:28;;;;;;;0.83;0.80;;;;;10.90;95741.00;;;;5052932;28;20196;-57
2023/05/11 06:36:59;;;;;;;0.60;0.60;;;;;10.70;95747.00;;;;5052630;28;20545;-57
2023/05/11 06:39:27;;;;;;;0.60;0.60;;;;;10.80;95752.00;;;;5053538;28;20192;-57
2023/05/11 06:41:54;;;;;;;0.80;0.80;;;;;11.10;95746.00;;;;5051799;28;20234;-57
2023/05/11 06:44:21;;;;;;;0.70;0.70;;;;;11.00;95748.00;;;;5053139;28;20200;-57
2023/05/11 06:46:49;;;;;;;0.57;0.57;;;;;11.20;95740.00;;;;5052224;28;20220;-56
2023/05/11 06:49:16;;;;;;;0.70;0.70;;;;;11.10;95745.00;;;;5051577;28;20219;-57
2023/05/11 06:51:44;;;;;;;0.50;0.50;;;;;11.30;95739.00;;;;5052974;28;20206;-57
2023/05/11 06:54:12;;;;;;;0.70;0.70;;;;;11.10;95744.00;;;;5052873;28;20210;-58
2023/05/11 06:56:40;;;;;;;0.80;0.80;;;;;11.40;95745.00;;;;5052759;28;20730;-58
2023/05/11 06:59:07;;;;;;;0.60;0.60;;;;;11.50;95741.00;;;;5051255;28;20224;-58
2023/05/11 07:01:35;;;;;;;0.57;0.57;;;;;11.50;95740.00;;;;5051105;28;20245;-58
2023/05/11 07:04:03;;;;;;;0.60;0.60;;;;;11.60;95740.00;;;;5051587;28;20192;-57
2023/05/11 07:06:30;;;;;;;0.60;0.60;;;;;11.70;95742.00;;;;5051288;28;20242;-56
2023/05/11 07:08:57;;;;;;;0.60;0.60;;;;;11.80;95747.00;;;;5050981;28;20220;-58
2023/05/11 07:11:26;;;;;;;0.73;0.73;;;;;11.80;95751.00;;;;5052865;28;20192;-57
2023/05/11 07:13:54;;;;;;;0.50;0.50;;;;;11.90;95747.00;;;;5050826;28;20742;-58
2023/05/11 07:16:22;;;;;;;0.50;0.50;;;;;11.80;95754.00;;;;5052322;28;20254;-58
2023/05/11 07:18:49;;;;;;;0.60;0.60;;;;;11.70;95755.00;;;;5052217;28;20212;-58
2023/05/11 07:21:17;;;;;;;1.27;1.17;;;;;11.60;95751.00;;;;5052383;28;20196;-58
2023/05/11 07:23:44;;;;;;;0.80;0.80;;;;;11.70;95754.00;;;;5052258;28;20258;-58
2023/05/11 07:26:12;;;;;;;0.60;0.60;;;;;11.80;95754.00;;;;5052146;28;20226;-58
2023/05/11 07:28:40;;;;;;;0.60;0.60;;;;;11.90;95752.00;;;;5052050;28;20270;-58
2023/05/11 07:31:08;;;;;;;0.60;0.60;;;;;11.90;95755.00;;;;5052107;28;20667;-57
2023/05/11 07:33:38;;;;;;;0.60;0.60;;;;;11.90;95763.00;;;;5052025;28;20204;-58
2023/05/11 07:36:06;;;;;;;0.50;0.50;;;;;11.80;95763.00;;;;5051960;28;20214;-58
2023/05/11 07:38:33;;;;;;;0.50;0.50;;;;;11.80;95766.00;;;;5052388;28;20216;-58
2023/05/11 07:41:01;;;;;;;0.60;0.60;;;;;11.80;95756.00;;;;5052257;28;20200;-58
2023/05/11 07:43:29;;;;;;;0.40;0.40;;;;;12.00;95761.00;;;;5052094;28;20203;-58
2023/05/11 07:45:58;;;;;;;0.50;0.50;;;;;11.70;95763.00;;;;5052389;28;20254;-58
2023/05/11 07:48:25;;;;;;;0.70;0.70;;;;;11.80;95766.00;;;;5051739;28;20239;-56
2023/05/11 07:50:53;;;;;;;2.03;1.80;;;;;11.80;95765.00;;;;5052367;28;20223;-57
2023/05/11 07:53:20;;;;;;;0.70;0.70;;;;;12.00;95765.00;;;;5051919;28;20200;-57
2023/05/11 07:55:48;;;;;;;0.73;0.73;;;;;12.10;95765.00;;;;5052092;28;20551;-58
2023/05/11 07:58:15;;;;;;;0.60;0.60;;;;;12.10;95764.00;;;;5066150;22;20235;-57
2023/05/11 08:00:42;;;;;;;0.60;0.60;;;;;12.30;95770.00;;;;5051875;28;20659;-56
2023/05/11 08:03:11;;;;;;;0.60;0.60;;;;;12.20;95769.00;;;;5051884;28;20200;-56
2023/05/11 08:05:39;;;;;;;2.33;0.90;;;;;12.30;95766.00;;;;5051839;28;20275;-54
2023/05/11 08:08:06;;;;;;;0.60;0.60;;;;;12.10;95759.00;;;;5045531;28;20230;-55
2023/05/11 08:10:35;;;;;;;0.50;0.50;;;;;12.30;95755.00;;;;5031593;28;20205;-55
2023/05/11 08:13:03;;;;;;;0.50;0.50;;;;;12.50;95761.00;;;;5013693;28;20200;-55
2023/05/11 08:15:31;;;;;;;0.70;0.70;;;;;12.50;95761.00;;;;5031265;28;20247;-56
2023/05/11 08:17:58;;;;;;;0.70;0.70;;;;;12.50;95768.00;;;;5031632;28;20224;-56
2023/05/11 08:20:27;;;;;;;0.60;0.60;;;;;12.40;95762.00;;;;5031417;28;20201;-56
2023/05/11 08:22:54;;;;;;;0.50;0.50;;;;;12.40;95767.00;;;;5031636;28;20193;-55
2023/05/11 08:25:22;;;;;;;0.77;0.77;;;;;12.40;95765.00;;;;5030943;28;20197;-56
2023/05/11 08:27:49;;;;;;;1.17;1.07;;;;;12.50;95759.00;;;;5031482;28;20270;-55
2023/05/11 08:30:17;;;;;;;0.70;0.70;;;;;12.60;95774.00;;;;5031597;28;20203;-56
2023/05/11 08:32:45;;;;;;;0.83;0.83;;;;;12.50;95764.00;;;;5031706;28;20196;-55
2023/05/11 08:35:13;;;;;;;1.00;1.00;;;;;12.30;95770.00;;;;5030822;28;20247;-56
2023/05/11 08:37:42;;;;;;;0.50;0.50;;;;;12.20;95769.00;;;;5031444;28;20205;-56
2023/05/11 08:40:12;;;;;;;0.90;0.90;;;;;12.30;95769.00;;;;5031182;28;20192;-55
2023/05/11 08:42:45;;;;;;;0.73;0.73;;;;;12.40;95765.00;;;;5031476;28;20204;-56
2023/05/11 08:45:13;;;;;;;0.60;0.60;;;;;12.40;95764.00;;;;5013169;28;20200;-56
2023/05/11 08:47:41;;;;;;;0.70;0.70;;;;;12.50;95761.00;;;;5031396;28;20213;-55
2023/05/11 08:50:09;;;;;;;0.40;0.40;;;;;12.50;95764.00;;;;5031117;28;20204;-55
2023/05/11 08:52:36;;;;;;;0.53;0.53;;;;;12.50;95767.00;;;;5031427;28;20211;-55
2023/05/11 08:55:06;;;;;;;0.50;0.50;;;;;12.40;95763.00;;;;5030681;28;20275;-55
2023/05/11 08:57:36;;;;;;;0.50;0.50;;;;;12.40;95765.00;;;;5031335;28;20270;-56
2023/05/11 09:00:04;;;;;;;0.60;0.60;;;;;12.60;95767.00;;;;5031193;28;20205;-55
2023/05/11 09:02:33;;;;;;;0.60;0.60;;;;;12.40;95766.00;;;;5030966;28;20193;-55
2023/05/11 09:05:02;;;;;;;0.70;0.70;;;;;12.60;95768.00;;;;5030590;28;20664;-55
2023/05/11 09:07:30;;;;;;;0.70;0.70;;;;;12.70;95765.00;;;;5030776;28;20280;-55
2023/05/11 09:09:58;;;;;;;0.60;0.60;;;;;12.90;95765.00;;;;5013797;28;20192;-54
2023/05/11 09:12:27;;;;;;;0.50;0.50;;;;;13.10;95757.00;;;;5031149;28;20208;-54
2023/05/11 09:14:55;;;;;;;0.70;0.70;;;;;12.90;95761.00;;;;5031537;28;20228;-55
2023/05/11 09:17:25;;;;;;;0.60;0.60;;;;;12.90;95757.00;;;;5030470;28;20196;-55
2023/05/11 09:20:00;;;;;;;0.67;0.67;;;;;13.20;95769.00;;;;5031760;28;20197;-55
2023/05/11 09:22:28;;;;;;;0.70;0.70;;;;;12.90;95759.00;;;;5027290;28;20193;-55
2023/05/11 09:24:56;;;;;;;0.50;0.50;;;;;13.00;95764.00;;;;5031382;28;20579;-55
2023/05/11 09:27:26;;;;;;;0.60;0.60;;;;;13.00;95758.00;;;;5030468;28;20227;-55
2023/05/11 09:29:54;;;;;;;0.70;0.70;;;;;13.00;95766.00;;;;5034987;28;20193;-55
2023/05/11 09:32:21;;;;;;;0.70;0.70;;;;;13.10;95766.00;;;;5035040;28;20263;-55
2023/05/11 09:34:49;;;;;;;0.60;0.60;;;;;13.30;95757.00;;;;5034668;28;20220;-55
2023/05/11 09:37:18;;;;;;;0.60;0.60;;;;;13.60;95762.00;;;;5034572;28;20264;-55
2023/05/11 09:39:45;;;;;;;0.60;0.60;;;;;13.70;95759.00;;;;5023595;28;20714;-55
2023/05/11 09:42:14;;;;;;;0.50;0.50;;;;;13.80;95746.00;;;;5053273;28;20195;-55
2023/05/11 09:44:44;;;;;;;0.73;0.73;;;;;13.80;95755.00;;;;5054526;28;20663;-55
2023/05/11 09:47:13;;;;;;;0.60;0.60;;;;;14.00;95757.00;;;;5054121;28;20314;-55
2023/05/11 09:49:42;;;;;;;0.60;0.60;;;;;14.20;95761.00;;;;5054097;28;20292;-55
2023/05/11 09:52:11;;;;;;;0.90;0.90;;;;;14.10;95753.00;;;;5054233;28;20197;-55
2023/05/11 09:54:43;;;;;;;0.70;0.70;;;;;13.70;95758.00;;;;5054445;28;20196;-55
2023/05/11 09:57:24;;;;;;;0.70;0.70;;;;;13.50;95751.00;;;;5053533;28;20192;-55
2023/05/11 09:59:54;;;;;;;0.60;0.60;;;;;13.50;95760.00;;;;5030731;28;20566;-55
2023/05/11 10:02:23;;;;;;;0.50;0.50;;;;;13.70;95758.00;;;;5034221;28;20192;-54
2023/05/11 10:04:52;;;;;;;0.50;0.50;;;;;13.80;95760.00;;;;5031337;28;20197;-54
2023/05/11 10:07:28;;;;;;;0.70;0.70;;;;;13.80;95760.00;;;;5033323;28;20287;-55
2023/05/11 10:09:57;;;;;;;0.60;0.60;;;;;14.00;95764.00;;;;5034123;28;20719;-55
2023/05/11 10:12:26;;;;;;;0.50;0.50;;;;;13.80;95756.00;;;;5033871;28;20209;-55
2023/05/11 10:14:58;;;;;;;0.50;0.50;;;;;13.90;95751.00;;;;5034115;28;20197;-56
2023/05/11 10:17:26;;;;;;;0.80;0.80;;;;;14.00;95756.00;;;;5035568;28;20184;-56
2023/05/11 10:19:56;;;;;;;0.80;0.80;;;;;14.30;95752.00;;;;5053599;28;20198;-55
2023/05/11 10:22:26;;;;;;;0.70;0.70;;;;;14.50;95750.00;;;;5053684;28;20194;-56
2023/05/11 10:24:54;;;;;;;0.80;0.80;;;;;14.60;95755.00;;;;5034132;28;20565;-55
2023/05/11 10:27:23;;;;;;;0.63;0.63;;;;;14.70;95756.00;;;;5033509;28;20613;-55
2023/05/11 10:29:51;;;;;;;1.87;1.77;;;;;14.70;95754.00;;;;5033716;28;20197;-55
2023/05/11 10:32:21;;;;;;;0.80;0.80;;;;;14.70;95750.00;;;;5029105;28;20200;-56
2023/05/11 10:34:50;;;;;;;0.60;0.60;;;;;14.40;95754.00;;;;5033298;28;20196;-55
2023/05/11 10:37:19;;;;;;;0.67;0.67;;;;;14.70;95751.00;;;;5039094;28;20224;-55
2023/05/11 10:39:48;;;;;;;0.50;0.50;;;;;14.90;95747.00;;;;5052989;28;20215;-55
2023/05/11 10:42:29;;;;;;;0.50;0.50;;;;;14.90;95750.00;;;;5053119;28;20694;-55
2023/05/11 10:45:07;;;;;;;0.60;0.60;;;;;14.90;95753.00;;;;5053188;28;20196;-55
2023/05/11 10:48:12;;;;;;;0.87;0.87;;;;;15.00;95746.00;;;;5053071;28;20265;-55
2023/05/11 10:51:11;;;;;;;0.70;0.70;;;;;15.20;95746.00;;;;5033490;28;20196;-55
2023/05/11 10:53:54;;;;;;;0.60;0.60;;;;;15.30;95743.00;;;;5033414;28;20247;-55
2023/05/11 10:56:35;;;;;;;1.07;1.07;;;;;15.10;95737.00;;;;5032731;28;20239;-55
2023/05/11 10:59:20;;;;;;;0.80;0.80;;;;;15.10;95742.00;;;;5033153;28;20729;-55
2023/05/11 11:01:50;;;;;;;0.53;0.53;;;;;15.20;95734.00;;;;5027401;28;20291;-55
2023/05/11 11:04:20;;;;;;;0.50;0.50;;;;;15.20;95733.00;;;;5033724;28;20188;-55
2023/05/11 11:06:47;;;;;;;0.50;0.50;;;;;15.10;95740.00;;;;5032444;28;20263;-55
2023/05/11 11:09:16;;;;;;;0.50;0.50;;;;;14.50;95739.00;;;;5034027;28;20224;-55
2023/05/11 11:11:45;;;;;;;0.60;0.60;;;;;14.60;95737.00;;;;5052165;28;20666;-55
2023/05/11 11:14:14;;;;;;;0.60;0.60;;;;;14.90;95729.00;;;;5046453;28;20204;-55
2023/05/11 11:17:04;;;;;;;0.60;0.60;;;;;14.90;95742.00;;;;5032509;28;20561;-55
2023/05/11 11:19:38;;;;;;;0.70;0.70;;;;;14.90;95734.00;;;;5032860;28;20224;-55
2023/05/11 11:22:06;;;;;;;0.70;0.70;;;;;15.00;95737.00;;;;5028791;28;20189;-54
2023/05/11 11:24:46;;;;;;;0.53;0.53;;;;;15.20;95745.00;;;;5032852;28;20220;-54
2023/05/11 11:27:15;;;;;;;0.57;0.57;;;;;15.10;95734.00;;;;5032066;28;20721;-55
2023/05/11 11:30:17;;;;;;;0.50;0.50;;;;;15.20;95730.00;;;;5032672;28;20225;-55
2023/05/11 11:32:46;;;;;;;0.50;0.50;;;;;15.30;95730.00;;;;5045171;28;20211;-55
2023/05/11 11:35:44;;;;;;;0.53;0.53;;;;;15.40;95735.00;;;;5033242;28;20244;-55
2023/05/11 11:38:13;;;;;;;0.80;0.80;;;;;15.60;95732.00;;;;5052079;28;20212;-54
2023/05/11 11:40:42;;;;;;;0.50;0.50;;;;;15.50;95730.00;;;;5052078;28;20667;-55
2023/05/11 11:43:16;;;;;;;0.50;0.50;;;;;15.40;95728.00;;;;5051998;28;20192;-55
2023/05/11 11:45:53;;;;;;;0.60;0.60;;;;;15.20;95728.00;;;;5038622;28;20185;-55
2023/05/11 11:48:30;;;;;;;0.47;0.47;;;;;15.10;95722.00;;;;5031987;28;20240;-55
2023/05/11 11:51:05;;;;;;;3.10;1.33;;;;;15.20;95726.00;;;;5031852;28;20628;-55
2023/05/11 11:54:06;;;;;;;1.03;1.03;;;;;15.40;95725.00;;;;5031927;28;20192;-55
2023/05/11 11:56:39;;;;;;;0.50;0.50;;;;;15.50;95726.00;;;;5031909;28;20188;-55
2023/05/11 11:59:10;;;;;;;0.50;0.50;;;;;15.50;95725.00;;;;5031564;28;20313;-57
2023/05/11 12:01:40;;;;;;;0.83;0.70;;;;;15.50;95729.00;;;;5049897;28;20188;-55
2023/05/11 12:04:38;;;;;;;0.90;0.90;;;;;15.40;95720.00;;;;5045022;28;20223;-55
2023/05/11 12:07:09;;;;;;;0.60;0.60;;;;;15.40;95722.00;;;;5007816;28;20219;-56
2023/05/11 12:09:43;;;;;;;0.70;0.70;;;;;15.10;95721.00;;;;5032049;28;20232;-55
2023/05/11 12:12:11;;;;;;;0.63;0.63;;;;;15.10;95728.00;;;;5031857;28;20230;-55
2023/05/11 12:14:40;;;;;;;0.50;0.50;;;;;15.00;95719.00;;;;5031628;28;20200;-55
2023/05/11 12:17:14;;;;;;;0.87;0.70;;;;;14.70;95711.00;;;;5031861;28;20205;-55
2023/05/11 12:19:43;;;;;;;0.60;0.60;;;;;14.70;95723.00;;;;5031365;28;20213;-56
2023/05/11 12:22:13;;;;;;;0.50;0.50;;;;;14.40;95721.00;;;;5031153;28;20274;-55
2023/05/11 12:24:41;;;;;;;1.40;0.90;;;;;14.10;95716.00;;;;5031871;28;20204;-55
2023/05/11 12:27:09;;;;;;;1.50;1.47;;;;;14.20;95725.00;;;;5010700;28;20201;-55
2023/05/11 12:29:37;;;;;;;0.87;0.87;;;;;14.40;95725.00;;;;5031187;28;20220;-55
2023/05/11 12:32:05;;;;;;;0.70;0.70;;;;;14.50;95716.00;;;;5013564;28;20201;-55